Carmel, IN (46032)

8:37 AM EST on December 05, 2016 (GMT -0500)
Dorset Boulevard | | Change Station

Elev 872 ft 39.97 °N, 86.17 °W | Updated 7 minutes ago

Overcast
Overcast
35.1 °F
Feels Like 35 °F
N
0.6
Wind Variable Wind from SW
Gusts 2.5 mph

Today
High -- | Low -- °F
--% Chance of Precip.
Yesterday
High -- | Low -- °F
Precip. -- in
Pressure 30.08 in
Visibility 10.0 miles
Clouds Overcast 900 ft
Windchill 35 °F
Dew Point 31 °F
Humidity 86%
Rainfall 0.00 in
Snow Depth Not available.
7:51 AM 5:19 PM
Waxing Crescent, 31% visible
METAR KTYQ 051315Z AUTO 25004KT 10SM OVC009 00/M01 A3008 RMK AO2 T00011012
Pressure 30.08 in
Visibility 10.0 miles
Clouds Overcast 900 ft
Windchill 35 °F
Dew Point 31 °F
Humidity 86%
Rainfall 0.00 in
Snow Depth Not available.
7:51 AM 5:19 PM
Waxing Crescent, 31% visible
METAR KTYQ 051315Z AUTO 25004KT 10SM OVC009 00/M01 A3008 RMK AO2 T00011012

10-Day Weather Forecast

Almanac

Astronomy

Dec. 05, 2016 Rise Set
Actual Time
Civil Twilight
Nautical Twilight
Astronomical Twilight
Moon
Length of Visible Light
Length of Day
Tomorrow will be .
, % of the Moon is Illuminated

Today's Extremes

State Highs State Lows

Community

WunderPhotos

Upload Photos

1,955,780 photos uploaded!

WunderBlog® & News

Nearby

Air Quality

  Air Quality AQ Index Pollutant
Not available.

Snow Depth

Station Depth Elevation

Earthquake Activity

City Distance Mag. Time & Date
Minimum magnitude displayed is 2.5.

Coastal Water Temperatures

Place Temperature

Stations

Nearby Weather Stations

Station Location Temp. Windchill Dew Point Humidity Wind Precip. Elev Updated Type
                   

Watches & Warnings

There are currently no watches in effect.